createdAt,value
2023-05-24T00:01:00.160Z,19.17
2023-05-24T00:03:30.713Z,12.93
2023-05-24T00:05:57.356Z,17.80
2023-05-24T00:08:24.134Z,17.50
2023-05-24T00:10:50.770Z,16.67
2023-05-24T00:13:17.643Z,13.53
2023-05-24T00:15:44.894Z,17.37
2023-05-24T00:18:11.374Z,16.47
2023-05-24T00:20:38.081Z,10.93
2023-05-24T00:23:04.743Z,17.77
2023-05-24T00:25:31.271Z,12.67
2023-05-24T00:27:57.776Z,16.37
2023-05-24T00:30:25.622Z,15.37
2023-05-24T00:32:52.269Z,13.37
2023-05-24T00:35:18.927Z,20.03
2023-05-24T00:37:46.436Z,15.13
2023-05-24T00:40:15.810Z,16.73
2023-05-24T00:42:42.938Z,12.87
2023-05-24T00:45:10.015Z,21.27
2023-05-24T00:47:36.811Z,15.90
2023-05-24T00:50:03.931Z,15.27
2023-05-24T00:52:30.823Z,21.93
2023-05-24T00:54:58.302Z,16.90
2023-05-24T00:57:25.142Z,19.20
2023-05-24T00:59:52.520Z,18.40
2023-05-24T01:02:20.871Z,12.73
2023-05-24T01:04:48.999Z,13.07
2023-05-24T01:07:41.934Z,17.63
2023-05-24T01:10:08.269Z,17.43
2023-05-24T01:12:59.554Z,15.37
2023-05-24T01:15:46.081Z,20.63
2023-05-24T01:18:26.212Z,19.30
2023-05-24T01:21:06.594Z,14.13
2023-05-24T01:23:48.151Z,22.23
2023-05-24T01:26:21.353Z,18.77
2023-05-24T01:28:48.690Z,24.03
2023-05-24T01:31:16.997Z,19.87
2023-05-24T01:33:44.522Z,18.67
2023-05-24T01:36:11.569Z,22.73
2023-05-24T01:38:40.526Z,20.13
2023-05-24T01:41:27.126Z,20.10
2023-05-24T01:44:07.407Z,21.20
2023-05-24T01:46:37.499Z,24.03
2023-05-24T01:49:18.226Z,20.80
2023-05-24T01:51:48.845Z,31.83
2023-05-24T01:54:20.208Z,23.87
2023-05-24T01:56:48.655Z,22.77
2023-05-24T01:59:15.360Z,22.23
2023-05-24T02:01:42.198Z,23.50
2023-05-24T02:04:08.770Z,21.23
2023-05-24T02:06:35.954Z,25.63
2023-05-24T02:09:02.406Z,26.97
2023-05-24T02:11:28.962Z,25.83
2023-05-24T02:13:55.728Z,24.90
2023-05-24T02:16:26.563Z,16.70
2023-05-24T02:18:53.452Z,19.57
2023-05-24T02:21:19.962Z,21.70
2023-05-24T02:23:46.435Z,18.83
2023-05-24T02:26:13.801Z,19.17
2023-05-24T02:28:40.663Z,22.70
2023-05-24T02:31:08.456Z,20.57
2023-05-24T02:33:37.350Z,18.73
2023-05-24T02:36:04.036Z,28.77
2023-05-24T02:38:31.868Z,20.53
2023-05-24T02:40:58.358Z,18.90
2023-05-24T02:43:24.914Z,17.17
2023-05-24T02:45:51.442Z,19.17
2023-05-24T02:48:18.155Z,22.07
2023-05-24T02:50:44.894Z,23.20
2023-05-24T02:53:11.848Z,20.37
2023-05-24T02:55:38.604Z,15.47
2023-05-24T02:58:05.091Z,21.40
2023-05-24T03:00:33.797Z,24.50
2023-05-24T03:03:03.105Z,24.30
2023-05-24T03:05:30.754Z,25.10
2023-05-24T03:07:58.420Z,26.53
2023-05-24T03:10:25.190Z,22.40
2023-05-24T03:12:51.724Z,20.90
2023-05-24T03:15:18.270Z,17.30
2023-05-24T03:17:46.172Z,20.73
2023-05-24T03:20:13.050Z,29.63
2023-05-24T03:22:39.529Z,28.80
2023-05-24T03:25:08.715Z,24.40
2023-05-24T03:27:38.662Z,19.57
2023-05-24T03:30:06.704Z,27.67
2023-05-24T03:32:38.709Z,21.53
2023-05-24T03:35:05.450Z,21.37
2023-05-24T03:37:32.886Z,20.60
2023-05-24T03:39:59.442Z,24.97
2023-05-24T03:42:36.424Z,22.83
2023-05-24T03:45:04.210Z,21.53
2023-05-24T03:47:31.250Z,27.23
2023-05-24T03:49:58.143Z,18.40
2023-05-24T03:52:25.123Z,20.27
2023-05-24T03:54:51.666Z,27.63
2023-05-24T03:57:18.309Z,19.37
2023-05-24T03:59:46.262Z,23.77
2023-05-24T04:02:12.781Z,24.40
2023-05-24T04:04:39.267Z,21.67
2023-05-24T04:07:05.717Z,23.10
2023-05-24T04:09:32.188Z,21.07
2023-05-24T04:11:58.746Z,21.60
2023-05-24T04:14:25.470Z,23.03
2023-05-24T04:16:53.634Z,25.47
2023-05-24T04:19:20.150Z,25.27
2023-05-24T04:21:46.737Z,24.37
2023-05-24T04:24:13.350Z,20.97
2023-05-24T04:26:40.191Z,21.80
2023-05-24T04:29:07.603Z,26.63
2023-05-24T04:31:34.994Z,18.47
2023-05-24T04:34:02.048Z,25.10
2023-05-24T04:36:31.314Z,22.27
2023-05-24T04:39:02.760Z,27.13
2023-05-24T04:41:31.894Z,24.63
2023-05-24T04:43:59.832Z,21.10
2023-05-24T04:46:27.435Z,18.43
2023-05-24T04:48:54.567Z,24.10
2023-05-24T04:51:22.806Z,21.80
2023-05-24T04:53:49.557Z,24.17
2023-05-24T04:56:16.946Z,22.77
2023-05-24T04:58:43.516Z,27.07
2023-05-24T05:01:10.062Z,22.67
2023-05-24T05:03:36.609Z,22.07
2023-05-24T05:06:03.280Z,27.70
2023-05-24T05:08:31.021Z,24.57
2023-05-24T05:10:57.747Z,29.90
2023-05-24T05:13:24.307Z,26.27
2023-05-24T05:15:51.606Z,24.47
2023-05-24T05:18:18.320Z,25.47
2023-05-24T05:20:45.162Z,28.07
2023-05-24T05:23:11.875Z,25.70
2023-05-24T05:25:38.309Z,27.50
2023-05-24T05:28:04.764Z,24.47
2023-05-24T05:30:33.021Z,26.27
2023-05-24T05:32:59.679Z,27.83
2023-05-24T05:35:26.375Z,23.97
2023-05-24T05:37:52.849Z,24.40
2023-05-24T05:40:19.292Z,27.57
2023-05-24T05:42:47.476Z,28.00
2023-05-24T05:45:13.926Z,26.67
2023-05-24T05:47:41.148Z,26.07
2023-05-24T05:50:08.031Z,27.63
2023-05-24T05:52:34.768Z,26.50
2023-05-24T05:55:02.934Z,27.77
2023-05-24T05:57:29.410Z,28.20
2023-05-24T05:59:56.038Z,20.60
2023-05-24T06:02:23.016Z,27.33
2023-05-24T06:04:49.930Z,23.70
2023-05-24T06:07:16.470Z,24.00
2023-05-24T06:09:42.938Z,19.97
2023-05-24T06:12:09.409Z,29.07
2023-05-24T06:14:38.375Z,29.53
2023-05-24T06:17:08.051Z,26.23
2023-05-24T06:19:34.541Z,24.53
2023-05-24T06:22:01.548Z,26.00
2023-05-24T06:24:28.715Z,26.90
2023-05-24T06:26:55.872Z,20.33
2023-05-24T06:29:22.781Z,20.67
2023-05-24T06:31:50.056Z,28.10
2023-05-24T06:34:21.083Z,23.17
2023-05-24T06:36:48.406Z,25.10
2023-05-24T06:39:15.940Z,26.07
2023-05-24T06:41:44.346Z,25.93
2023-05-24T06:44:11.006Z,22.97
2023-05-24T06:46:37.748Z,23.57
2023-05-24T06:49:04.438Z,21.70
2023-05-24T06:51:31.253Z,22.73
2023-05-24T06:53:57.711Z,26.83
2023-05-24T06:56:24.156Z,27.87
2023-05-24T06:58:51.060Z,24.50
2023-05-24T07:01:18.575Z,22.53
2023-05-24T07:03:45.114Z,23.50
2023-05-24T07:06:14.011Z,20.70
2023-05-24T07:08:41.927Z,21.67
2023-05-24T07:11:09.540Z,21.80
2023-05-24T07:13:36.128Z,24.87
2023-05-24T07:16:02.573Z,25.23
2023-05-24T07:18:30.212Z,32.27
2023-05-24T07:20:56.637Z,24.80
2023-05-24T07:23:23.391Z,27.40
2023-05-24T07:25:49.978Z,26.73
2023-05-24T07:28:19.919Z,23.67
2023-05-24T07:30:46.791Z,25.43
2023-05-24T07:33:13.871Z,24.00
2023-05-24T07:35:40.537Z,27.03
2023-05-24T07:38:07.642Z,30.17
2023-05-24T07:40:34.881Z,22.27
2023-05-24T07:43:02.240Z,19.73
2023-05-24T07:45:29.863Z,28.57
2023-05-24T07:47:57.066Z,25.40
2023-05-24T07:50:23.989Z,21.07
2023-05-24T07:52:51.307Z,21.90
2023-05-24T07:55:17.803Z,25.47
2023-05-24T07:57:44.242Z,25.67
2023-05-24T08:00:14.358Z,25.60
2023-05-24T08:02:46.552Z,22.77
2023-05-24T08:05:13.870Z,21.97
2023-05-24T08:07:41.650Z,27.63
2023-05-24T08:10:10.584Z,27.57
2023-05-24T08:12:36.986Z,24.13
2023-05-24T08:15:04.150Z,26.30
2023-05-24T08:17:31.671Z,27.83
2023-05-24T08:19:58.322Z,29.20
2023-05-24T08:22:24.911Z,24.53
2023-05-24T08:24:52.265Z,25.23
2023-05-24T08:27:18.900Z,28.40
2023-05-24T08:29:45.365Z,22.73
2023-05-24T08:32:11.871Z,31.50
2023-05-24T08:34:38.663Z,24.00
2023-05-24T08:37:05.423Z,28.07
2023-05-24T08:39:31.847Z,29.20
2023-05-24T08:42:08.683Z,27.20
2023-05-24T08:44:41.672Z,24.63
2023-05-24T08:47:09.117Z,25.53
2023-05-24T08:49:38.126Z,30.10
2023-05-24T08:52:07.455Z,23.83
2023-05-24T08:54:37.368Z,26.53
2023-05-24T08:57:04.546Z,22.13
2023-05-24T08:59:31.034Z,26.17
2023-05-24T09:01:57.863Z,25.93
2023-05-24T09:04:26.804Z,23.47
2023-05-24T09:06:55.084Z,27.53
2023-05-24T09:09:24.182Z,23.03
2023-05-24T09:11:53.684Z,27.10
2023-05-24T09:14:20.363Z,27.47
2023-05-24T09:16:47.151Z,26.20
2023-05-24T09:19:14.156Z,26.50
2023-05-24T09:21:40.798Z,27.57
2023-05-24T09:24:08.375Z,31.63
2023-05-24T09:26:36.626Z,24.87
2023-05-24T09:29:07.569Z,27.77
2023-05-24T09:31:35.596Z,25.10
2023-05-24T09:34:02.772Z,25.97
2023-05-24T09:36:36.722Z,29.13
2023-05-24T09:39:10.301Z,37.47
2023-05-24T09:41:37.372Z,23.73
2023-05-24T09:44:04.349Z,25.07
2023-05-24T09:46:36.295Z,26.23
2023-05-24T09:49:07.952Z,22.90
2023-05-24T09:51:38.242Z,27.10
2023-05-24T09:54:05.731Z,21.53
2023-05-24T09:56:33.788Z,29.50
2023-05-24T09:59:08.797Z,22.60
2023-05-24T10:01:36.249Z,20.63
2023-05-24T10:04:09.279Z,25.13
2023-05-24T10:06:38.505Z,25.33
2023-05-24T10:09:06.612Z,24.13
2023-05-24T10:11:37.516Z,24.37
2023-05-24T10:14:08.871Z,24.87
2023-05-24T10:16:37.987Z,23.43
2023-05-24T10:19:05.890Z,24.57
2023-05-24T10:21:34.050Z,27.07
2023-05-24T10:24:02.301Z,29.37
2023-05-24T10:26:32.697Z,25.67
2023-05-24T10:29:05.617Z,19.70
2023-05-24T10:31:39.344Z,25.40
2023-05-24T10:34:09.027Z,20.13
2023-05-24T10:36:36.957Z,20.23
2023-05-24T10:39:03.752Z,21.73
2023-05-24T10:41:39.001Z,26.97
2023-05-24T10:44:11.686Z,18.83
2023-05-24T10:47:02.191Z,22.70
2023-05-24T10:49:28.648Z,25.20
2023-05-24T10:52:02.908Z,23.97
2023-05-24T10:54:30.184Z,20.47
2023-05-24T10:57:04.387Z,20.47
2023-05-24T10:59:34.931Z,14.90
2023-05-24T11:02:01.988Z,18.67
2023-05-24T11:04:33.162Z,18.83
2023-05-24T11:07:05.326Z,18.53
2023-05-24T11:09:33.285Z,18.00
2023-05-24T11:12:09.807Z,17.40
2023-05-24T11:14:42.361Z,18.70
2023-05-24T11:17:09.400Z,15.57
2023-05-24T11:19:38.027Z,20.57
2023-05-24T11:22:07.858Z,17.37
2023-05-24T11:24:35.096Z,16.83
2023-05-24T11:27:03.646Z,21.57
2023-05-24T11:29:30.587Z,16.80
2023-05-24T11:32:05.537Z,19.67
2023-05-24T11:34:32.608Z,18.57
2023-05-24T11:37:00.467Z,14.47
2023-05-24T11:39:32.456Z,15.50
2023-05-24T11:42:00.302Z,21.87
2023-05-24T11:44:31.796Z,16.97
2023-05-24T11:46:59.744Z,20.00
2023-05-24T11:49:26.832Z,17.60
2023-05-24T11:51:54.995Z,16.47
2023-05-24T11:54:22.476Z,16.77
2023-05-24T11:56:49.088Z,16.80
2023-05-24T11:59:24.223Z,16.33
2023-05-24T12:01:57.796Z,17.50
2023-05-24T12:04:24.517Z,18.37
2023-05-24T12:06:51.078Z,16.40
2023-05-24T12:09:18.702Z,17.23
2023-05-24T12:11:48.475Z,15.30
2023-05-24T12:14:17.067Z,17.70
2023-05-24T12:16:44.648Z,16.37
2023-05-24T12:19:32.468Z,18.43
2023-05-24T12:22:00.766Z,17.63
2023-05-24T12:24:28.320Z,13.17
2023-05-24T12:27:02.007Z,19.17
2023-05-24T12:29:34.086Z,12.23
2023-05-24T12:32:00.929Z,11.40
2023-05-24T12:34:27.807Z,13.90
2023-05-24T12:36:55.786Z,9.57
2023-05-24T12:39:24.395Z,13.50
2023-05-24T12:41:55.944Z,10.67
2023-05-24T12:44:29.853Z,13.53
2023-05-24T12:46:58.157Z,9.20
2023-05-24T12:49:26.807Z,15.20
2023-05-24T12:51:54.966Z,13.57
2023-05-24T12:54:26.951Z,16.43
2023-05-24T12:56:56.330Z,15.13
2023-05-24T12:59:24.240Z,14.53
2023-05-24T13:01:51.924Z,10.67
2023-05-24T13:04:20.883Z,10.43
2023-05-24T13:06:48.462Z,12.60
2023-05-24T13:09:17.956Z,15.30
2023-05-24T13:11:45.332Z,11.77
2023-05-24T13:14:12.293Z,13.87
2023-05-24T13:16:38.816Z,16.13
2023-05-24T13:19:05.287Z,17.20
2023-05-24T13:21:31.969Z,14.83
2023-05-24T13:23:58.430Z,18.77
2023-05-24T13:26:25.537Z,15.70
2023-05-24T13:29:21.703Z,11.77
2023-05-24T13:31:38.822Z,14.23
2023-05-24T13:34:05.797Z,15.07
2023-05-24T13:36:32.535Z,15.63
2023-05-24T13:39:13.948Z,13.73
2023-05-24T13:41:43.046Z,13.80
2023-05-24T13:44:10.437Z,20.60
2023-05-24T13:46:37.753Z,13.27
2023-05-24T13:49:05.258Z,18.40
2023-05-24T13:51:31.942Z,17.07
2023-05-24T13:53:58.897Z,14.53
2023-05-24T13:56:26.014Z,12.67
2023-05-24T13:58:53.680Z,12.57
2023-05-24T14:01:20.685Z,17.07
2023-05-24T14:03:47.586Z,19.47
2023-05-24T14:06:14.096Z,15.57
2023-05-24T14:08:40.633Z,19.13
2023-05-24T14:11:07.080Z,20.90
2023-05-24T14:16:03.214Z,20.67
2023-05-24T14:18:29.707Z,19.23
2023-05-24T14:20:56.413Z,19.60
2023-05-24T14:23:23.215Z,20.83
2023-05-24T14:25:51.822Z,22.30
2023-05-24T14:28:18.804Z,18.90
2023-05-24T14:30:45.623Z,20.13
2023-05-24T14:33:12.360Z,19.23
2023-05-24T14:35:39.874Z,17.20
2023-05-24T14:38:07.668Z,17.03
2023-05-24T14:40:34.329Z,11.70
2023-05-24T14:43:01.089Z,17.03
2023-05-24T14:45:27.859Z,19.77
2023-05-24T14:47:54.343Z,20.17
2023-05-24T14:50:21.480Z,12.67
2023-05-24T14:52:47.918Z,18.53
2023-05-24T14:55:14.639Z,17.50
2023-05-24T14:57:41.826Z,17.43
2023-05-24T15:00:10.521Z,17.07
2023-05-24T15:02:37.390Z,14.03
2023-05-24T15:05:04.624Z,17.10
2023-05-24T15:07:31.775Z,20.43
2023-05-24T15:09:58.279Z,19.63
2023-05-24T15:12:24.764Z,19.63
2023-05-24T15:14:51.296Z,18.93
2023-05-24T15:17:19.616Z,22.67
2023-05-24T15:19:48.148Z,17.80
2023-05-24T15:22:14.580Z,20.23
2023-05-24T15:24:41.104Z,21.27
2023-05-24T15:27:07.706Z,26.13
2023-05-24T15:29:34.150Z,18.40
2023-05-24T15:32:01.474Z,18.53
2023-05-24T15:34:28.273Z,22.83
2023-05-24T15:36:54.742Z,37.63
2023-05-24T15:39:21.785Z,25.53
2023-05-24T15:41:48.623Z,24.83
2023-05-24T15:44:15.257Z,23.20
2023-05-24T15:46:41.722Z,22.43
2023-05-24T15:49:08.176Z,19.97
2023-05-24T15:54:06.091Z,24.07
2023-05-24T15:56:32.773Z,20.00
2023-05-24T15:58:59.257Z,26.67
2023-05-24T16:01:26.065Z,21.93
2023-05-24T16:03:53.218Z,23.90
2023-05-24T16:06:19.725Z,21.60
2023-05-24T16:08:46.601Z,20.27
2023-05-24T16:11:13.406Z,19.53
2023-05-24T16:13:39.853Z,26.77
2023-05-24T16:16:06.419Z,15.33
2023-05-24T16:18:34.606Z,17.97
2023-05-24T16:21:01.552Z,23.20
2023-05-24T16:23:28.211Z,17.17
2023-05-24T16:25:54.691Z,17.73
2023-05-24T16:28:24.909Z,19.20
2023-05-24T16:30:55.491Z,19.20
2023-05-24T16:33:23.028Z,22.23
2023-05-24T16:35:55.345Z,22.77
2023-05-24T16:38:23.416Z,17.53
2023-05-24T16:40:50.225Z,16.77
2023-05-24T16:43:17.168Z,21.97
2023-05-24T16:45:44.192Z,19.03
2023-05-24T16:48:11.333Z,21.80
2023-05-24T16:50:37.834Z,19.13
2023-05-24T16:53:06.511Z,21.13
2023-05-24T16:55:33.228Z,20.37
2023-05-24T16:57:59.694Z,23.47
2023-05-24T17:00:26.355Z,24.10
2023-05-24T17:02:53.050Z,20.27
2023-05-24T17:05:19.510Z,20.13
2023-05-24T17:07:46.286Z,25.17
2023-05-24T17:10:12.914Z,26.87
2023-05-24T17:12:39.446Z,21.43
2023-05-24T17:15:06.781Z,21.03
2023-05-24T17:17:33.344Z,18.67
2023-05-24T17:20:00.222Z,22.03
2023-05-24T17:22:26.778Z,20.13
2023-05-24T17:24:53.620Z,26.83
2023-05-24T17:27:22.416Z,21.83
2023-05-24T17:29:49.300Z,18.93
2023-05-24T17:32:15.758Z,22.33
2023-05-24T17:34:42.188Z,23.83
2023-05-24T17:37:08.631Z,21.00
2023-05-24T17:39:35.096Z,15.13
2023-05-24T17:42:01.606Z,19.77
2023-05-24T17:44:28.130Z,21.43
2023-05-24T17:46:54.700Z,22.63
2023-05-24T17:49:21.163Z,23.37
2023-05-24T17:51:47.789Z,19.67
2023-05-24T17:54:14.355Z,20.17
2023-05-24T17:56:41.027Z,18.00
2023-05-24T17:59:07.663Z,17.10
2023-05-24T18:01:34.160Z,20.27
2023-05-24T18:04:00.881Z,18.13
2023-05-24T18:06:27.375Z,21.07
2023-05-24T18:08:54.024Z,25.53
2023-05-24T18:11:20.666Z,19.10
2023-05-24T18:13:47.093Z,17.07
2023-05-24T18:16:13.925Z,25.67
2023-05-24T18:18:40.972Z,19.47
2023-05-24T18:21:09.447Z,23.33
2023-05-24T18:23:39.436Z,18.53
2023-05-24T18:26:07.167Z,21.33
2023-05-24T18:28:37.629Z,18.80
2023-05-24T18:31:10.241Z,22.00
2023-05-24T18:33:37.968Z,23.40
2023-05-24T18:36:05.763Z,16.20
2023-05-24T18:38:35.964Z,19.63
2023-05-24T18:41:06.044Z,26.00
2023-05-24T18:43:33.162Z,19.70
2023-05-24T18:45:59.778Z,22.80
2023-05-24T18:48:26.665Z,21.40
2023-05-24T18:50:53.891Z,18.73
2023-05-24T18:53:20.534Z,26.00
2023-05-24T18:55:47.567Z,16.57
2023-05-24T18:58:14.680Z,23.87
2023-05-24T19:00:41.269Z,26.90
2023-05-24T19:03:10.806Z,18.67
2023-05-24T19:05:39.468Z,19.93
2023-05-24T19:08:07.439Z,24.27
2023-05-24T19:10:34.117Z,20.80
2023-05-24T19:13:01.131Z,22.37
2023-05-24T19:15:28.204Z,21.77
2023-05-24T19:17:55.694Z,21.90
2023-05-24T19:20:22.222Z,18.93
2023-05-24T19:22:48.912Z,18.87
2023-05-24T19:25:15.474Z,21.23
2023-05-24T19:27:54.731Z,21.93
2023-05-24T19:30:25.544Z,19.33
2023-05-24T19:32:52.183Z,23.67
2023-05-24T19:35:18.677Z,17.37
2023-05-24T19:37:45.228Z,19.97
2023-05-24T19:40:11.857Z,26.90
2023-05-24T19:42:38.471Z,20.93
2023-05-24T19:45:05.532Z,22.10
2023-05-24T19:47:32.133Z,20.73
2023-05-24T19:49:58.609Z,22.73
2023-05-24T19:52:25.046Z,20.93
2023-05-24T19:54:51.636Z,19.67
2023-05-24T19:57:18.140Z,22.83
2023-05-24T19:59:44.649Z,20.67
2023-05-24T20:02:11.093Z,18.17
2023-05-24T20:04:41.798Z,27.00
2023-05-24T20:07:08.869Z,18.87
2023-05-24T20:09:35.814Z,22.27
2023-05-24T20:12:02.726Z,20.87
2023-05-24T20:14:31.354Z,20.10
2023-05-24T20:16:58.684Z,19.43
2023-05-24T20:19:26.196Z,20.90
2023-05-24T20:21:52.837Z,23.97
2023-05-24T20:24:19.499Z,22.63
2023-05-24T20:26:46.094Z,19.83
2023-05-24T20:29:12.639Z,19.10
2023-05-24T20:31:39.162Z,26.47
2023-05-24T20:34:05.716Z,22.13
2023-05-24T20:36:33.127Z,23.43
2023-05-24T20:38:59.687Z,23.33
2023-05-24T20:41:26.652Z,26.07
2023-05-24T20:43:53.206Z,19.37
2023-05-24T20:46:19.782Z,25.97
2023-05-24T20:48:46.709Z,25.67
2023-05-24T20:51:13.206Z,26.47
2023-05-24T20:53:40.172Z,28.70
2023-05-24T20:56:06.909Z,20.67
2023-05-24T20:58:33.353Z,25.73
2023-05-24T21:01:00.046Z,27.87
2023-05-24T21:03:27.539Z,23.63
2023-05-24T21:05:54.315Z,23.60
2023-05-24T21:08:21.570Z,29.63
2023-05-24T21:10:48.114Z,27.13
2023-05-24T21:13:14.739Z,31.33
2023-05-24T21:15:43.134Z,21.60
2023-05-24T21:18:11.904Z,27.67
2023-05-24T21:20:38.445Z,24.97
2023-05-24T21:23:05.057Z,26.03
2023-05-24T21:25:31.645Z,27.47
2023-05-24T21:27:58.429Z,20.77
2023-05-24T21:30:24.899Z,24.07
2023-05-24T21:32:51.369Z,24.70
2023-05-24T21:35:18.095Z,28.73
2023-05-24T21:37:44.541Z,24.37
2023-05-24T21:40:11.382Z,25.23
2023-05-24T21:42:37.892Z,26.50
2023-05-24T21:45:04.738Z,30.57
2023-05-24T21:47:31.286Z,22.30
2023-05-24T21:49:57.763Z,25.63
2023-05-24T21:52:24.410Z,29.77
2023-05-24T21:54:51.040Z,25.33
2023-05-24T21:57:17.469Z,20.43
2023-05-24T21:59:43.994Z,22.80
2023-05-24T22:02:10.451Z,22.40
2023-05-24T22:04:36.914Z,25.90
2023-05-24T22:07:03.421Z,27.00
2023-05-24T22:09:31.072Z,22.27
2023-05-24T22:11:57.555Z,21.17
2023-05-24T22:14:24.443Z,22.67
2023-05-24T22:16:51.169Z,30.00
2023-05-24T22:19:25.289Z,22.07
2023-05-24T22:21:59.551Z,24.10
2023-05-24T22:24:26.951Z,23.20
2023-05-24T22:26:53.745Z,22.23
2023-05-24T22:29:20.259Z,24.77
2023-05-24T22:31:46.924Z,23.63
2023-05-24T22:34:13.534Z,23.30
2023-05-24T22:36:40.042Z,21.07
2023-05-24T22:39:07.145Z,19.90
2023-05-24T22:41:33.669Z,24.53
2023-05-24T22:44:00.197Z,19.73
2023-05-24T22:46:30.006Z,25.43
2023-05-24T22:48:57.959Z,25.97
2023-05-24T22:51:24.874Z,25.47
2023-05-24T22:53:52.526Z,24.20
2023-05-24T22:56:19.342Z,25.03
2023-05-24T22:58:45.937Z,23.13
2023-05-24T23:01:12.389Z,24.43
2023-05-24T23:03:38.910Z,28.83
2023-05-24T23:06:05.517Z,22.97
2023-05-24T23:08:32.338Z,23.83
2023-05-24T23:11:04.599Z,23.87
2023-05-24T23:13:33.133Z,20.40
2023-05-24T23:16:00.052Z,18.63
2023-05-24T23:18:28.131Z,24.43
2023-05-24T23:20:55.894Z,24.37
2023-05-24T23:23:22.954Z,25.40
2023-05-24T23:25:53.261Z,25.60
2023-05-24T23:28:19.784Z,22.10
2023-05-24T23:30:46.324Z,21.90
2023-05-24T23:33:13.198Z,19.53
2023-05-24T23:35:39.937Z,20.23
2023-05-24T23:38:06.470Z,21.70
2023-05-24T23:40:33.781Z,20.37
2023-05-24T23:43:00.581Z,20.53
2023-05-24T23:45:27.364Z,18.43
2023-05-24T23:47:54.065Z,19.23
2023-05-24T23:50:22.392Z,20.13
2023-05-24T23:52:49.270Z,16.43
2023-05-24T23:55:15.962Z,20.87
2023-05-24T23:57:42.721Z,21.83
